sensor_id;sensor_type;location;lat;lon;timestamp;P1;durP1;ratioP1;P2;durP2;ratioP2
2564;SDS011;1292;48.020;7.822;2023-04-01T05:47:44;2.63;;;1.00;;
2564;SDS011;1292;48.020;7.822;2023-04-01T05:50:10;2.83;;;0.97;;
2564;SDS011;1292;48.020;7.822;2023-04-01T05:52:37;6.03;;;2.23;;
2564;SDS011;1292;48.020;7.822;2023-04-01T05:55:05;2.10;;;0.60;;
2564;SDS011;1292;48.020;7.822;2023-04-01T05:57:32;1.43;;;1.10;;
2564;SDS011;1292;48.020;7.822;2023-04-01T05:59:59;2.47;;;1.00;;
2564;SDS011;1292;48.020;7.822;2023-04-01T06:02:27;2.23;;;0.80;;
2564;SDS011;1292;48.020;7.822;2023-04-01T06:04:54;5.37;;;1.23;;
2564;SDS011;1292;48.020;7.822;2023-04-01T06:07:29;3.27;;;1.40;;
2564;SDS011;1292;48.020;7.822;2023-04-01T06:09:56;3.67;;;1.10;;
2564;SDS011;1292;48.020;7.822;2023-04-01T06:12:29;2.10;;;1.27;;
2564;SDS011;1292;48.020;7.822;2023-04-01T06:15:18;8.37;;;1.20;;
2564;SDS011;1292;48.020;7.822;2023-04-01T06:18:13;1.83;;;0.90;;
2564;SDS011;1292;48.020;7.822;2023-04-01T06:21:05;2.17;;;0.90;;
2564;SDS011;1292;48.020;7.822;2023-04-01T06:23:52;0.80;;;0.70;;
2564;SDS011;1292;48.020;7.822;2023-04-01T06:26:30;1.27;;;0.80;;
2564;SDS011;1292;48.020;7.822;2023-04-01T06:29:08;1.90;;;1.10;;
2564;SDS011;1292;48.020;7.822;2023-04-01T06:31:58;1.80;;;0.70;;
2564;SDS011;1292;48.020;7.822;2023-04-01T06:34:47;2.70;;;1.10;;
2564;SDS011;1292;48.020;7.822;2023-04-01T06:37:43;1.87;;;1.07;;
2564;SDS011;1292;48.020;7.822;2023-04-01T06:40:38;2.63;;;0.90;;
2564;SDS011;1292;48.020;7.822;2023-04-01T06:43:27;3.73;;;0.90;;
2564;SDS011;1292;48.020;7.822;2023-04-01T06:46:05;2.40;;;0.90;;
2564;SDS011;1292;48.020;7.822;2023-04-01T06:48:43;6.33;;;1.33;;
2564;SDS011;1292;48.020;7.822;2023-04-01T06:51:21;1.07;;;0.80;;
2564;SDS011;1292;48.020;7.822;2023-04-01T06:53:58;2.13;;;0.73;;
2564;SDS011;1292;48.020;7.822;2023-04-01T06:56:30;1.63;;;1.00;;
2564;SDS011;1292;48.020;7.822;2023-04-01T06:58:59;1.67;;;0.70;;
2564;SDS011;1292;48.020;7.822;2023-04-01T07:01:32;3.40;;;1.30;;
2564;SDS011;1292;48.020;7.822;2023-04-01T07:04:05;2.00;;;0.80;;
2564;SDS011;1292;48.020;7.822;2023-04-01T07:06:37;6.03;;;1.50;;
2564;SDS011;1292;48.020;7.822;2023-04-01T07:09:10;1.20;;;0.80;;
2564;SDS011;1292;48.020;7.822;2023-04-01T07:11:40;3.00;;;1.10;;
2564;SDS011;1292;48.020;7.822;2023-04-01T07:14:10;5.97;;;1.20;;
2564;SDS011;1292;48.020;7.822;2023-04-01T07:16:44;2.70;;;1.07;;
2564;SDS011;1292;48.020;7.822;2023-04-01T07:19:16;0.80;;;0.80;;
2564;SDS011;1292;48.020;7.822;2023-04-01T07:21:50;2.20;;;1.00;;
2564;SDS011;1292;48.020;7.822;2023-04-01T07:24:21;1.53;;;0.80;;
2564;SDS011;1292;48.020;7.822;2023-04-01T07:26:52;0.70;;;0.60;;
2564;SDS011;1292;48.020;7.822;2023-04-01T07:29:21;0.60;;;0.60;;
2564;SDS011;1292;48.020;7.822;2023-04-01T07:34:52;1.00;;;0.73;;
2564;SDS011;1292;48.020;7.822;2023-04-01T07:37:28;2.60;;;0.83;;
2564;SDS011;1292;48.020;7.822;2023-04-01T07:40:06;1.20;;;0.70;;
2564;SDS011;1292;48.020;7.822;2023-04-01T07:42:48;3.80;;;1.00;;
2564;SDS011;1292;48.020;7.822;2023-04-01T07:45:30;5.80;;;1.10;;
2564;SDS011;1292;48.020;7.822;2023-04-01T07:48:06;0.80;;;0.57;;
2564;SDS011;1292;48.020;7.822;2023-04-01T07:50:43;2.07;;;1.17;;
2564;SDS011;1292;48.020;7.822;2023-04-01T07:53:19;2.77;;;0.80;;
2564;SDS011;1292;48.020;7.822;2023-04-01T07:55:54;3.83;;;1.00;;
2564;SDS011;1292;48.020;7.822;2023-04-01T07:58:31;1.43;;;0.80;;
2564;SDS011;1292;48.020;7.822;2023-04-01T08:01:02;1.77;;;0.90;;
2564;SDS011;1292;48.020;7.822;2023-04-01T08:03:39;1.53;;;0.93;;
2564;SDS011;1292;48.020;7.822;2023-04-01T08:06:18;3.20;;;1.33;;
2564;SDS011;1292;48.020;7.822;2023-04-01T08:08:55;3.50;;;1.30;;
2564;SDS011;1292;48.020;7.822;2023-04-01T08:11:33;3.93;;;1.10;;
2564;SDS011;1292;48.020;7.822;2023-04-01T08:14:14;1.63;;;0.67;;
2564;SDS011;1292;48.020;7.822;2023-04-01T08:16:50;5.77;;;2.30;;
2564;SDS011;1292;48.020;7.822;2023-04-01T08:19:27;3.17;;;1.80;;
2564;SDS011;1292;48.020;7.822;2023-04-01T08:22:02;1.90;;;0.93;;
2564;SDS011;1292;48.020;7.822;2023-04-01T08:24:38;2.70;;;0.70;;
2564;SDS011;1292;48.020;7.822;2023-04-01T08:27:09;3.17;;;1.27;;
2564;SDS011;1292;48.020;7.822;2023-04-01T08:29:42;3.40;;;0.70;;
2564;SDS011;1292;48.020;7.822;2023-04-01T08:32:15;1.30;;;1.20;;
2564;SDS011;1292;48.020;7.822;2023-04-01T08:34:45;0.63;;;0.63;;
2564;SDS011;1292;48.020;7.822;2023-04-01T08:37:17;1.47;;;0.80;;
2564;SDS011;1292;48.020;7.822;2023-04-01T08:39:51;1.53;;;0.80;;
2564;SDS011;1292;48.020;7.822;2023-04-01T08:42:29;2.40;;;1.00;;
2564;SDS011;1292;48.020;7.822;2023-04-01T08:45:22;1.53;;;1.13;;
2564;SDS011;1292;48.020;7.822;2023-04-01T08:54:17;1.47;;;1.37;;
2564;SDS011;1292;48.020;7.822;2023-04-01T08:57:12;1.67;;;1.17;;
2564;SDS011;1292;48.020;7.822;2023-04-01T08:59:56;1.67;;;0.70;;
2564;SDS011;1292;48.020;7.822;2023-04-01T09:02:42;0.83;;;0.63;;
2564;SDS011;1292;48.020;7.822;2023-04-01T09:05:36;1.00;;;0.80;;
2564;SDS011;1292;48.020;7.822;2023-04-01T09:08:32;2.20;;;0.73;;
2564;SDS011;1292;48.020;7.822;2023-04-01T09:11:09;2.50;;;1.33;;
2564;SDS011;1292;48.020;7.822;2023-04-01T09:16:38;2.60;;;0.97;;
2564;SDS011;1292;48.020;7.822;2023-04-01T09:19:16;1.40;;;1.30;;
2564;SDS011;1292;48.020;7.822;2023-04-01T09:25:01;3.20;;;1.50;;
2564;SDS011;1292;48.020;7.822;2023-04-01T09:27:43;2.23;;;0.90;;
2564;SDS011;1292;48.020;7.822;2023-04-01T09:33:53;1.40;;;0.90;;
2564;SDS011;1292;48.020;7.822;2023-04-01T09:36:36;2.57;;;1.00;;
2564;SDS011;1292;48.020;7.822;2023-04-01T09:39:26;3.83;;;1.10;;
2564;SDS011;1292;48.020;7.822;2023-04-01T09:44:58;2.33;;;1.40;;
2564;SDS011;1292;48.020;7.822;2023-04-01T09:47:29;1.63;;;1.27;;
2564;SDS011;1292;48.020;7.822;2023-04-01T09:50:33;3.50;;;1.00;;
2564;SDS011;1292;48.020;7.822;2023-04-01T09:53:17;5.17;;;2.20;;
2564;SDS011;1292;48.020;7.822;2023-04-01T10:05:10;1.27;;;0.70;;
2564;SDS011;1292;48.020;7.822;2023-04-01T10:11:14;2.20;;;0.80;;
2564;SDS011;1292;48.020;7.822;2023-04-01T10:14:22;1.23;;;0.90;;
2564;SDS011;1292;48.020;7.822;2023-04-01T10:17:10;1.60;;;0.80;;
2564;SDS011;1292;48.020;7.822;2023-04-01T10:20:09;1.47;;;0.90;;
2564;SDS011;1292;48.020;7.822;2023-04-01T10:23:02;2.80;;;0.93;;
2564;SDS011;1292;48.020;7.822;2023-04-01T10:25:49;1.93;;;0.93;;
2564;SDS011;1292;48.020;7.822;2023-04-01T10:28:38;2.23;;;1.20;;
2564;SDS011;1292;48.020;7.822;2023-04-01T10:37:57;1.93;;;0.80;;
2564;SDS011;1292;48.020;7.822;2023-04-01T10:40:57;2.30;;;1.03;;
2564;SDS011;1292;48.020;7.822;2023-04-01T10:50:13;2.40;;;1.00;;
2564;SDS011;1292;48.020;7.822;2023-04-01T10:53:01;1.57;;;0.90;;
2564;SDS011;1292;48.020;7.822;2023-04-01T10:55:53;3.80;;;0.80;;
2564;SDS011;1292;48.020;7.822;2023-04-01T11:01:47;1.87;;;0.77;;
2564;SDS011;1292;48.020;7.822;2023-04-01T11:07:58;2.03;;;1.23;;
2564;SDS011;1292;48.020;7.822;2023-04-01T11:11:16;1.53;;;1.27;;
2564;SDS011;1292;48.020;7.822;2023-04-01T11:14:20;2.37;;;0.90;;
2564;SDS011;1292;48.020;7.822;2023-04-01T11:17:17;2.30;;;1.27;;
2564;SDS011;1292;48.020;7.822;2023-04-01T11:20:13;4.77;;;2.23;;
2564;SDS011;1292;48.020;7.822;2023-04-01T11:26:06;2.80;;;2.20;;
2564;SDS011;1292;48.020;7.822;2023-04-01T11:28:48;1.73;;;1.40;;
2564;SDS011;1292;48.020;7.822;2023-04-01T11:31:53;4.40;;;2.77;;
2564;SDS011;1292;48.020;7.822;2023-04-01T11:37:26;2.27;;;0.90;;
2564;SDS011;1292;48.020;7.822;2023-04-01T11:40:01;1.97;;;1.30;;
2564;SDS011;1292;48.020;7.822;2023-04-01T11:42:40;3.70;;;0.70;;
2564;SDS011;1292;48.020;7.822;2023-04-01T11:45:15;3.40;;;0.80;;
2564;SDS011;1292;48.020;7.822;2023-04-01T11:47:56;3.40;;;2.10;;
2564;SDS011;1292;48.020;7.822;2023-04-01T11:50:37;2.33;;;1.70;;
2564;SDS011;1292;48.020;7.822;2023-04-01T11:53:19;3.93;;;2.43;;
2564;SDS011;1292;48.020;7.822;2023-04-01T11:55:54;2.40;;;1.63;;
2564;SDS011;1292;48.020;7.822;2023-04-01T11:58:32;3.13;;;1.50;;
2564;SDS011;1292;48.020;7.822;2023-04-01T12:01:25;4.00;;;1.90;;
2564;SDS011;1292;48.020;7.822;2023-04-01T12:06:59;5.20;;;2.00;;
2564;SDS011;1292;48.020;7.822;2023-04-01T12:09:33;3.10;;;1.43;;
2564;SDS011;1292;48.020;7.822;2023-04-01T12:12:11;4.47;;;1.73;;
2564;SDS011;1292;48.020;7.822;2023-04-01T12:14:46;3.43;;;1.03;;
2564;SDS011;1292;48.020;7.822;2023-04-01T12:17:27;1.77;;;1.03;;
2564;SDS011;1292;48.020;7.822;2023-04-01T12:20:16;1.97;;;0.87;;
2564;SDS011;1292;48.020;7.822;2023-04-01T12:23:06;1.57;;;0.90;;
2564;SDS011;1292;48.020;7.822;2023-04-01T12:25:56;1.83;;;1.00;;
2564;SDS011;1292;48.020;7.822;2023-04-01T12:28:39;1.97;;;1.20;;
2564;SDS011;1292;48.020;7.822;2023-04-01T12:34:20;1.63;;;1.37;;
2564;SDS011;1292;48.020;7.822;2023-04-01T12:37:06;1.30;;;1.20;;
2564;SDS011;1292;48.020;7.822;2023-04-01T12:39:47;3.40;;;1.20;;
2564;SDS011;1292;48.020;7.822;2023-04-01T12:42:31;2.70;;;1.00;;
2564;SDS011;1292;48.020;7.822;2023-04-01T12:45:19;1.10;;;0.97;;
2564;SDS011;1292;48.020;7.822;2023-04-01T12:51:11;2.10;;;0.90;;
2564;SDS011;1292;48.020;7.822;2023-04-01T12:54:08;1.50;;;1.00;;
2564;SDS011;1292;48.020;7.822;2023-04-01T12:56:56;2.37;;;1.10;;
2564;SDS011;1292;48.020;7.822;2023-04-01T12:59:42;0.70;;;0.70;;
2564;SDS011;1292;48.020;7.822;2023-04-01T13:02:24;2.50;;;0.70;;
2564;SDS011;1292;48.020;7.822;2023-04-01T13:05:17;2.30;;;1.20;;
2564;SDS011;1292;48.020;7.822;2023-04-01T13:07:58;2.40;;;1.00;;
2564;SDS011;1292;48.020;7.822;2023-04-01T13:10:32;4.73;;;1.13;;
2564;SDS011;1292;48.020;7.822;2023-04-01T13:13:27;1.63;;;1.20;;
2564;SDS011;1292;48.020;7.822;2023-04-01T13:16:05;2.07;;;0.80;;
2564;SDS011;1292;48.020;7.822;2023-04-01T13:18:39;6.67;;;1.20;;
2564;SDS011;1292;48.020;7.822;2023-04-01T13:21:19;1.43;;;1.17;;
2564;SDS011;1292;48.020;7.822;2023-04-01T13:23:54;2.17;;;1.20;;
2564;SDS011;1292;48.020;7.822;2023-04-01T13:26:27;1.00;;;0.70;;
2564;SDS011;1292;48.020;7.822;2023-04-01T13:29:06;2.13;;;0.73;;
2564;SDS011;1292;48.020;7.822;2023-04-01T13:31:42;2.50;;;1.00;;
2564;SDS011;1292;48.020;7.822;2023-04-01T13:34:19;3.00;;;0.80;;
2564;SDS011;1292;48.020;7.822;2023-04-01T13:37:01;5.10;;;0.90;;
2564;SDS011;1292;48.020;7.822;2023-04-01T13:39:47;2.30;;;1.03;;
2564;SDS011;1292;48.020;7.822;2023-04-01T13:42:25;1.87;;;1.00;;
2564;SDS011;1292;48.020;7.822;2023-04-01T13:44:59;3.20;;;0.90;;
2564;SDS011;1292;48.020;7.822;2023-04-01T13:50:37;0.80;;;0.80;;
2564;SDS011;1292;48.020;7.822;2023-04-01T13:53:22;2.57;;;0.90;;
2564;SDS011;1292;48.020;7.822;2023-04-01T13:56:16;1.80;;;0.93;;
2564;SDS011;1292;48.020;7.822;2023-04-01T13:58:56;1.87;;;0.93;;
2564;SDS011;1292;48.020;7.822;2023-04-01T14:01:47;1.90;;;0.87;;
2564;SDS011;1292;48.020;7.822;2023-04-01T14:04:30;1.03;;;1.00;;
2564;SDS011;1292;48.020;7.822;2023-04-01T14:07:10;2.00;;;1.07;;
2564;SDS011;1292;48.020;7.822;2023-04-01T14:09:46;1.07;;;0.90;;
2564;SDS011;1292;48.020;7.822;2023-04-01T14:12:27;4.97;;;1.40;;
2564;SDS011;1292;48.020;7.822;2023-04-01T14:15:03;1.73;;;1.30;;
2564;SDS011;1292;48.020;7.822;2023-04-01T14:17:54;1.13;;;0.93;;
2564;SDS011;1292;48.020;7.822;2023-04-01T14:20:36;4.70;;;0.90;;
2564;SDS011;1292;48.020;7.822;2023-04-01T14:23:15;0.90;;;0.50;;
2564;SDS011;1292;48.020;7.822;2023-04-01T14:26:07;2.80;;;1.00;;
2564;SDS011;1292;48.020;7.822;2023-04-01T14:28:43;2.43;;;1.00;;
2564;SDS011;1292;48.020;7.822;2023-04-01T14:31:21;1.47;;;0.93;;
2564;SDS011;1292;48.020;7.822;2023-04-01T14:34:00;0.70;;;0.60;;
2564;SDS011;1292;48.020;7.822;2023-04-01T14:36:41;1.13;;;0.67;;
2564;SDS011;1292;48.020;7.822;2023-04-01T14:42:16;1.63;;;1.17;;
2564;SDS011;1292;48.020;7.822;2023-04-01T14:45:07;3.07;;;0.90;;
2564;SDS011;1292;48.020;7.822;2023-04-01T14:47:47;1.00;;;0.90;;
2564;SDS011;1292;48.020;7.822;2023-04-01T14:50:21;2.40;;;0.97;;
2564;SDS011;1292;48.020;7.822;2023-04-01T14:52:56;1.20;;;0.70;;
2564;SDS011;1292;48.020;7.822;2023-04-01T14:55:43;1.90;;;1.00;;
2564;SDS011;1292;48.020;7.822;2023-04-01T14:58:15;4.30;;;1.10;;
2564;SDS011;1292;48.020;7.822;2023-04-01T15:00:48;6.27;;;1.10;;
2564;SDS011;1292;48.020;7.822;2023-04-01T15:03:33;2.13;;;1.03;;
2564;SDS011;1292;48.020;7.822;2023-04-01T15:06:27;1.37;;;0.90;;
2564;SDS011;1292;48.020;7.822;2023-04-01T15:09:09;2.23;;;1.10;;
2564;SDS011;1292;48.020;7.822;2023-04-01T15:11:51;0.80;;;0.60;;
2564;SDS011;1292;48.020;7.822;2023-04-01T15:17:28;2.33;;;1.33;;
2564;SDS011;1292;48.020;7.822;2023-04-01T15:20:12;2.40;;;1.23;;
2564;SDS011;1292;48.020;7.822;2023-04-01T15:23:02;1.40;;;1.30;;
2564;SDS011;1292;48.020;7.822;2023-04-01T15:25:45;0.80;;;0.73;;
2564;SDS011;1292;48.020;7.822;2023-04-01T15:28:30;1.77;;;0.97;;
2564;SDS011;1292;48.020;7.822;2023-04-01T15:31:02;4.70;;;1.23;;
2564;SDS011;1292;48.020;7.822;2023-04-01T15:33:41;2.10;;;1.20;;
2564;SDS011;1292;48.020;7.822;2023-04-01T15:36:19;0.70;;;0.70;;
2564;SDS011;1292;48.020;7.822;2023-04-01T15:38:58;0.80;;;0.70;;
2564;SDS011;1292;48.020;7.822;2023-04-01T15:41:35;2.30;;;0.93;;
2564;SDS011;1292;48.020;7.822;2023-04-01T15:47:05;1.10;;;1.00;;
2564;SDS011;1292;48.020;7.822;2023-04-01T15:49:55;4.20;;;1.30;;
2564;SDS011;1292;48.020;7.822;2023-04-01T15:52:34;0.70;;;0.63;;
2564;SDS011;1292;48.020;7.822;2023-04-01T15:55:16;1.30;;;0.77;;
2564;SDS011;1292;48.020;7.822;2023-04-01T15:57:51;1.30;;;0.90;;
2564;SDS011;1292;48.020;7.822;2023-04-01T16:00:28;2.10;;;0.70;;
2564;SDS011;1292;48.020;7.822;2023-04-01T16:03:09;0.77;;;0.77;;
2564;SDS011;1292;48.020;7.822;2023-04-01T16:05:54;2.97;;;1.60;;
2564;SDS011;1292;48.020;7.822;2023-04-01T16:08:51;1.77;;;1.47;;
2564;SDS011;1292;48.020;7.822;2023-04-01T16:11:36;1.57;;;1.30;;
2564;SDS011;1292;48.020;7.822;2023-04-01T16:14:16;2.13;;;1.73;;
2564;SDS011;1292;48.020;7.822;2023-04-01T16:16:58;2.60;;;1.30;;
2564;SDS011;1292;48.020;7.822;2023-04-01T16:19:41;4.20;;;2.67;;
2564;SDS011;1292;48.020;7.822;2023-04-01T16:22:17;2.63;;;2.07;;
2564;SDS011;1292;48.020;7.822;2023-04-01T16:24:51;2.90;;;2.50;;
2564;SDS011;1292;48.020;7.822;2023-04-01T16:27:25;2.43;;;1.60;;
2564;SDS011;1292;48.020;7.822;2023-04-01T16:30:00;2.40;;;2.00;;
2564;SDS011;1292;48.020;7.822;2023-04-01T16:32:44;5.60;;;3.20;;
2564;SDS011;1292;48.020;7.822;2023-04-01T16:35:24;3.53;;;2.57;;
2564;SDS011;1292;48.020;7.822;2023-04-01T16:37:59;1.87;;;1.40;;
2564;SDS011;1292;48.020;7.822;2023-04-01T16:40:36;2.40;;;1.30;;
2564;SDS011;1292;48.020;7.822;2023-04-01T16:43:13;1.20;;;1.10;;
2564;SDS011;1292;48.020;7.822;2023-04-01T16:45:52;3.03;;;1.30;;
2564;SDS011;1292;48.020;7.822;2023-04-01T16:48:45;2.17;;;1.63;;
2564;SDS011;1292;48.020;7.822;2023-04-01T16:51:24;3.43;;;2.40;;
2564;SDS011;1292;48.020;7.822;2023-04-01T16:53:52;3.43;;;1.60;;
2564;SDS011;1292;48.020;7.822;2023-04-01T16:56:36;4.47;;;2.40;;
2564;SDS011;1292;48.020;7.822;2023-04-01T16:59:13;4.87;;;4.47;;
2564;SDS011;1292;48.020;7.822;2023-04-01T17:01:43;11.07;;;7.13;;
2564;SDS011;1292;48.020;7.822;2023-04-01T17:04:17;7.50;;;5.50;;
2564;SDS011;1292;48.020;7.822;2023-04-01T17:06:52;6.97;;;4.60;;
2564;SDS011;1292;48.020;7.822;2023-04-01T17:09:29;8.20;;;6.67;;
2564;SDS011;1292;48.020;7.822;2023-04-01T17:12:12;9.83;;;6.20;;
2564;SDS011;1292;48.020;7.822;2023-04-01T17:14:48;5.80;;;4.77;;
2564;SDS011;1292;48.020;7.822;2023-04-01T17:17:23;5.37;;;4.33;;
2564;SDS011;1292;48.020;7.822;2023-04-01T17:20:12;3.37;;;2.83;;
2564;SDS011;1292;48.020;7.822;2023-04-01T17:22:51;3.07;;;2.53;;
2564;SDS011;1292;48.020;7.822;2023-04-01T17:25:25;3.20;;;2.57;;
2564;SDS011;1292;48.020;7.822;2023-04-01T17:28:03;5.50;;;1.83;;
2564;SDS011;1292;48.020;7.822;2023-04-01T17:30:39;3.03;;;1.97;;
2564;SDS011;1292;48.020;7.822;2023-04-01T17:33:26;4.00;;;2.30;;
2564;SDS011;1292;48.020;7.822;2023-04-01T17:36:09;2.40;;;1.40;;
2564;SDS011;1292;48.020;7.822;2023-04-01T17:38:55;2.10;;;1.30;;
2564;SDS011;1292;48.020;7.822;2023-04-01T17:41:31;4.10;;;1.70;;
2564;SDS011;1292;48.020;7.822;2023-04-01T17:44:13;2.20;;;1.47;;
2564;SDS011;1292;48.020;7.822;2023-04-01T17:47:01;1.73;;;1.40;;
2564;SDS011;1292;48.020;7.822;2023-04-01T17:49:39;1.20;;;0.90;;
2564;SDS011;1292;48.020;7.822;2023-04-01T17:52:16;2.90;;;1.80;;
2564;SDS011;1292;48.020;7.822;2023-04-01T17:54:50;2.17;;;1.50;;
2564;SDS011;1292;48.020;7.822;2023-04-01T18:00:17;1.77;;;1.30;;
2564;SDS011;1292;48.020;7.822;2023-04-01T18:02:52;1.33;;;1.10;;
2564;SDS011;1292;48.020;7.822;2023-04-01T18:05:38;1.67;;;1.10;;
2564;SDS011;1292;48.020;7.822;2023-04-01T18:11:20;1.53;;;1.30;;
2564;SDS011;1292;48.020;7.822;2023-04-01T18:17:18;2.63;;;1.10;;
2564;SDS011;1292;48.020;7.822;2023-04-01T18:20:17;1.40;;;1.30;;
2564;SDS011;1292;48.020;7.822;2023-04-01T18:22:53;1.23;;;1.00;;
2564;SDS011;1292;48.020;7.822;2023-04-01T18:25:26;1.90;;;1.10;;
2564;SDS011;1292;48.020;7.822;2023-04-01T18:28:07;0.70;;;0.70;;
2564;SDS011;1292;48.020;7.822;2023-04-01T18:30:42;2.13;;;1.27;;
2564;SDS011;1292;48.020;7.822;2023-04-01T18:33:16;1.20;;;1.10;;
2564;SDS011;1292;48.020;7.822;2023-04-01T18:35:50;4.20;;;1.00;;
2564;SDS011;1292;48.020;7.822;2023-04-01T18:38:24;0.97;;;0.80;;
2564;SDS011;1292;48.020;7.822;2023-04-01T18:41:07;2.73;;;1.70;;
2564;SDS011;1292;48.020;7.822;2023-04-01T18:43:39;2.07;;;1.50;;
2564;SDS011;1292;48.020;7.822;2023-04-01T18:46:16;2.10;;;1.77;;
2564;SDS011;1292;48.020;7.822;2023-04-01T18:48:50;2.70;;;2.33;;
2564;SDS011;1292;48.020;7.822;2023-04-01T18:51:23;6.87;;;3.40;;
2564;SDS011;1292;48.020;7.822;2023-04-01T18:53:53;4.90;;;3.23;;
2564;SDS011;1292;48.020;7.822;2023-04-01T18:56:24;4.60;;;2.87;;
2564;SDS011;1292;48.020;7.822;2023-04-01T18:58:58;4.90;;;2.13;;
2564;SDS011;1292;48.020;7.822;2023-04-01T19:01:28;5.20;;;2.07;;
2564;SDS011;1292;48.020;7.822;2023-04-01T19:04:07;2.20;;;2.00;;
2564;SDS011;1292;48.020;7.822;2023-04-01T19:06:45;2.33;;;1.53;;
2564;SDS011;1292;48.020;7.822;2023-04-01T19:09:18;2.10;;;1.47;;
2564;SDS011;1292;48.020;7.822;2023-04-01T19:11:50;1.97;;;1.47;;
2564;SDS011;1292;48.020;7.822;2023-04-01T19:14:41;1.30;;;1.20;;
2564;SDS011;1292;48.020;7.822;2023-04-01T19:17:19;1.97;;;1.70;;
2564;SDS011;1292;48.020;7.822;2023-04-01T19:19:59;5.73;;;1.60;;
2564;SDS011;1292;48.020;7.822;2023-04-01T19:22:40;2.43;;;1.30;;
2564;SDS011;1292;48.020;7.822;2023-04-01T19:25:21;1.13;;;1.03;;
2564;SDS011;1292;48.020;7.822;2023-04-01T19:27:53;1.40;;;1.30;;
2564;SDS011;1292;48.020;7.822;2023-04-01T19:30:32;0.80;;;0.80;;
2564;SDS011;1292;48.020;7.822;2023-04-01T19:33:17;1.60;;;1.00;;
2564;SDS011;1292;48.020;7.822;2023-04-01T19:35:54;2.10;;;1.17;;
2564;SDS011;1292;48.020;7.822;2023-04-01T19:38:30;0.97;;;0.90;;
2564;SDS011;1292;48.020;7.822;2023-04-01T19:41:01;0.90;;;0.87;;
2564;SDS011;1292;48.020;7.822;2023-04-01T19:43:39;1.77;;;1.30;;
2564;SDS011;1292;48.020;7.822;2023-04-01T19:46:26;1.50;;;1.40;;
2564;SDS011;1292;48.020;7.822;2023-04-01T19:51:50;2.03;;;1.40;;
2564;SDS011;1292;48.020;7.822;2023-04-01T19:54:27;1.10;;;0.87;;
2564;SDS011;1292;48.020;7.822;2023-04-01T19:57:04;2.10;;;0.80;;
2564;SDS011;1292;48.020;7.822;2023-04-01T19:59:39;0.93;;;0.83;;
2564;SDS011;1292;48.020;7.822;2023-04-01T20:02:22;1.37;;;0.70;;
2564;SDS011;1292;48.020;7.822;2023-04-01T20:04:57;1.57;;;1.10;;
2564;SDS011;1292;48.020;7.822;2023-04-01T20:07:30;2.27;;;0.87;;
2564;SDS011;1292;48.020;7.822;2023-04-01T20:10:06;0.90;;;0.80;;
2564;SDS011;1292;48.020;7.822;2023-04-01T20:12:40;0.90;;;0.70;;
2564;SDS011;1292;48.020;7.822;2023-04-01T20:15:20;1.20;;;0.70;;
2564;SDS011;1292;48.020;7.822;2023-04-01T20:17:50;1.43;;;0.93;;
2564;SDS011;1292;48.020;7.822;2023-04-01T20:20:20;0.97;;;0.93;;
2564;SDS011;1292;48.020;7.822;2023-04-01T20:23:07;1.03;;;0.70;;
2564;SDS011;1292;48.020;7.822;2023-04-01T20:25:54;0.70;;;0.60;;
2564;SDS011;1292;48.020;7.822;2023-04-01T20:28:25;0.87;;;0.77;;
2564;SDS011;1292;48.020;7.822;2023-04-01T20:31:07;1.30;;;0.60;;
2564;SDS011;1292;48.020;7.822;2023-04-01T20:33:58;1.43;;;0.83;;
2564;SDS011;1292;48.020;7.822;2023-04-01T20:36:51;3.90;;;0.87;;
2564;SDS011;1292;48.020;7.822;2023-04-01T20:39:52;1.37;;;0.97;;
2564;SDS011;1292;48.020;7.822;2023-04-01T20:42:55;1.20;;;1.00;;
2564;SDS011;1292;48.020;7.822;2023-04-01T20:45:33;0.80;;;0.80;;
2564;SDS011;1292;48.020;7.822;2023-04-01T20:48:11;1.27;;;0.90;;
2564;SDS011;1292;48.020;7.822;2023-04-01T20:50:58;2.03;;;1.20;;
2564;SDS011;1292;48.020;7.822;2023-04-01T20:53:32;1.30;;;1.20;;
2564;SDS011;1292;48.020;7.822;2023-04-01T20:59:01;0.80;;;0.80;;
